sensor_id;sensor_type;location;lat;lon;timestamp;temperature;humidity
17591;DHT22;8914;50.070;8.226;2023-12-20T00:01:56;6.50;99.90
17591;DHT22;8914;50.070;8.226;2023-12-20T00:04:26;6.50;99.90
17591;DHT22;8914;50.070;8.226;2023-12-20T00:06:55;6.50;99.90
17591;DHT22;8914;50.070;8.226;2023-12-20T00:09:28;6.40;99.90
17591;DHT22;8914;50.070;8.226;2023-12-20T00:11:57;6.50;99.90
17591;DHT22;8914;50.070;8.226;2023-12-20T00:14:27;6.40;99.90
17591;DHT22;8914;50.070;8.226;2023-12-20T00:16:57;6.40;99.90
17591;DHT22;8914;50.070;8.226;2023-12-20T00:19:26;6.40;99.90
17591;DHT22;8914;50.070;8.226;2023-12-20T00:21:56;6.30;99.90
17591;DHT22;8914;50.070;8.226;2023-12-20T00:24:29;6.30;99.90
17591;DHT22;8914;50.070;8.226;2023-12-20T00:26:58;6.20;99.90
17591;DHT22;8914;50.070;8.226;2023-12-20T00:29:28;6.30;99.90
17591;DHT22;8914;50.070;8.226;2023-12-20T00:31:57;6.30;99.90
17591;DHT22;8914;50.070;8.226;2023-12-20T00:34:27;6.20;99.90
17591;DHT22;8914;50.070;8.226;2023-12-20T00:36:57;6.20;99.90
17591;DHT22;8914;50.070;8.226;2023-12-20T00:39:29;6.30;99.90
17591;DHT22;8914;50.070;8.226;2023-12-20T00:41:59;6.20;99.90
17591;DHT22;8914;50.070;8.226;2023-12-20T00:44:29;6.20;99.90
17591;DHT22;8914;50.070;8.226;2023-12-20T00:46:58;6.20;99.90
17591;DHT22;8914;50.070;8.226;2023-12-20T00:49:28;6.20;99.90
17591;DHT22;8914;50.070;8.226;2023-12-20T00:51:58;6.10;99.90
17591;DHT22;8914;50.070;8.226;2023-12-20T00:54:30;6.10;99.90
17591;DHT22;8914;50.070;8.226;2023-12-20T00:57:00;6.10;99.90
17591;DHT22;8914;50.070;8.226;2023-12-20T00:59:30;6.10;99.90
17591;DHT22;8914;50.070;8.226;2023-12-20T01:01:59;6.10;99.90
17591;DHT22;8914;50.070;8.226;2023-12-20T01:04:29;6.10;99.90
17591;DHT22;8914;50.070;8.226;2023-12-20T01:06:59;6.10;99.90
17591;DHT22;8914;50.070;8.226;2023-12-20T01:09:31;6.10;99.90
17591;DHT22;8914;50.070;8.226;2023-12-20T01:12:01;6.10;99.90
17591;DHT22;8914;50.070;8.226;2023-12-20T01:14:30;6.50;99.90
17591;DHT22;8914;50.070;8.226;2023-12-20T01:17:00;6.10;99.90
17591;DHT22;8914;50.070;8.226;2023-12-20T01:19:29;6.10;99.90
17591;DHT22;8914;50.070;8.226;2023-12-20T01:21:59;6.10;99.90
17591;DHT22;8914;50.070;8.226;2023-12-20T01:24:33;6.10;99.90
17591;DHT22;8914;50.070;8.226;2023-12-20T01:27:02;6.10;99.90
17591;DHT22;8914;50.070;8.226;2023-12-20T01:29:32;6.10;99.90
17591;DHT22;8914;50.070;8.226;2023-12-20T01:32:02;6.10;99.90
17591;DHT22;8914;50.070;8.226;2023-12-20T01:34:32;6.10;99.90
17591;DHT22;8914;50.070;8.226;2023-12-20T01:37:01;6.10;99.90
17591;DHT22;8914;50.070;8.226;2023-12-20T01:39:34;6.10;99.90
17591;DHT22;8914;50.070;8.226;2023-12-20T01:42:04;6.10;99.90
17591;DHT22;8914;50.070;8.226;2023-12-20T01:44:34;6.10;99.90
17591;DHT22;8914;50.070;8.226;2023-12-20T01:47:03;6.10;99.90
17591;DHT22;8914;50.070;8.226;2023-12-20T01:49:33;6.10;99.90
17591;DHT22;8914;50.070;8.226;2023-12-20T01:52:03;6.10;99.90
17591;DHT22;8914;50.070;8.226;2023-12-20T01:54:38;6.10;99.90
17591;DHT22;8914;50.070;8.226;2023-12-20T01:57:09;6.10;99.90
17591;DHT22;8914;50.070;8.226;2023-12-20T01:59:39;6.10;99.90
17591;DHT22;8914;50.070;8.226;2023-12-20T02:02:09;6.20;99.90
17591;DHT22;8914;50.070;8.226;2023-12-20T02:04:39;6.20;99.90
17591;DHT22;8914;50.070;8.226;2023-12-20T02:07:10;6.20;99.90
17591;DHT22;8914;50.070;8.226;2023-12-20T02:09:43;6.20;99.90
17591;DHT22;8914;50.070;8.226;2023-12-20T02:12:13;6.30;99.90
17591;DHT22;8914;50.070;8.226;2023-12-20T02:14:42;6.30;99.90
17591;DHT22;8914;50.070;8.226;2023-12-20T02:17:12;6.30;99.90
17591;DHT22;8914;50.070;8.226;2023-12-20T02:19:41;6.30;99.90
17591;DHT22;8914;50.070;8.226;2023-12-20T02:22:14;6.40;99.90
17591;DHT22;8914;50.070;8.226;2023-12-20T02:24:43;5.70;99.90
17591;DHT22;8914;50.070;8.226;2023-12-20T02:27:13;6.40;99.90
17591;DHT22;8914;50.070;8.226;2023-12-20T02:29:44;6.40;99.90
17591;DHT22;8914;50.070;8.226;2023-12-20T02:32:16;6.40;99.90
17591;DHT22;8914;50.070;8.226;2023-12-20T02:34:47;6.40;99.90
17591;DHT22;8914;50.070;8.226;2023-12-20T02:37:20;6.40;99.90
17591;DHT22;8914;50.070;8.226;2023-12-20T02:39:49;6.40;99.90
17591;DHT22;8914;50.070;8.226;2023-12-20T02:42:19;6.40;99.90
17591;DHT22;8914;50.070;8.226;2023-12-20T02:44:49;6.30;99.90
17591;DHT22;8914;50.070;8.226;2023-12-20T02:47:18;6.30;99.90
17591;DHT22;8914;50.070;8.226;2023-12-20T02:49:48;6.30;99.90
17591;DHT22;8914;50.070;8.226;2023-12-20T02:52:22;6.30;99.90
17591;DHT22;8914;50.070;8.226;2023-12-20T02:54:52;6.40;99.90
17591;DHT22;8914;50.070;8.226;2023-12-20T02:57:21;6.80;99.90
17591;DHT22;8914;50.070;8.226;2023-12-20T02:59:51;6.40;99.90
17591;DHT22;8914;50.070;8.226;2023-12-20T03:02:20;6.50;99.90
17591;DHT22;8914;50.070;8.226;2023-12-20T03:04:50;6.50;99.90
17591;DHT22;8914;50.070;8.226;2023-12-20T03:07:23;6.50;99.90
17591;DHT22;8914;50.070;8.226;2023-12-20T03:09:53;6.50;99.90
17591;DHT22;8914;50.070;8.226;2023-12-20T03:12:43;6.50;99.90
17591;DHT22;8914;50.070;8.226;2023-12-20T03:15:12;6.50;99.90
17591;DHT22;8914;50.070;8.226;2023-12-20T03:17:42;6.50;99.90
17591;DHT22;8914;50.070;8.226;2023-12-20T03:20:12;6.50;99.90
17591;DHT22;8914;50.070;8.226;2023-12-20T03:22:44;6.60;99.90
17591;DHT22;8914;50.070;8.226;2023-12-20T03:25:14;6.60;99.90
17591;DHT22;8914;50.070;8.226;2023-12-20T03:27:43;6.60;99.90
17591;DHT22;8914;50.070;8.226;2023-12-20T03:30:14;6.60;99.90
17591;DHT22;8914;50.070;8.226;2023-12-20T03:32:44;6.60;99.90
17591;DHT22;8914;50.070;8.226;2023-12-20T03:43:16;6.60;99.90
17591;DHT22;8914;50.070;8.226;2023-12-20T03:45:45;6.60;99.90
17591;DHT22;8914;50.070;8.226;2023-12-20T03:48:15;6.60;99.90
17591;DHT22;8914;50.070;8.226;2023-12-20T03:50:45;6.60;99.90
17591;DHT22;8914;50.070;8.226;2023-12-20T03:53:14;6.60;99.90
17591;DHT22;8914;50.070;8.226;2023-12-20T03:55:44;6.60;99.90
17591;DHT22;8914;50.070;8.226;2023-12-20T03:58:16;6.60;99.90
17591;DHT22;8914;50.070;8.226;2023-12-20T04:00:46;6.70;99.90
17591;DHT22;8914;50.070;8.226;2023-12-20T04:03:16;6.70;99.90
17591;DHT22;8914;50.070;8.226;2023-12-20T04:05:46;6.70;99.90
17591;DHT22;8914;50.070;8.226;2023-12-20T04:08:16;6.60;99.90
17591;DHT22;8914;50.070;8.226;2023-12-20T04:10:45;6.60;99.90
17591;DHT22;8914;50.070;8.226;2023-12-20T04:13:17;6.60;99.90
17591;DHT22;8914;50.070;8.226;2023-12-20T04:15:47;6.60;99.90
17591;DHT22;8914;50.070;8.226;2023-12-20T04:18:18;6.60;99.90
17591;DHT22;8914;50.070;8.226;2023-12-20T04:20:48;6.60;99.90
17591;DHT22;8914;50.070;8.226;2023-12-20T04:23:18;6.60;99.90
17591;DHT22;8914;50.070;8.226;2023-12-20T04:25:47;6.70;99.90
17591;DHT22;8914;50.070;8.226;2023-12-20T04:28:20;6.90;99.90
17591;DHT22;8914;50.070;8.226;2023-12-20T04:30:49;6.70;99.90
17591;DHT22;8914;50.070;8.226;2023-12-20T04:33:19;6.70;99.90
17591;DHT22;8914;50.070;8.226;2023-12-20T04:35:49;6.70;99.90
17591;DHT22;8914;50.070;8.226;2023-12-20T04:38:19;6.70;99.90
17591;DHT22;8914;50.070;8.226;2023-12-20T04:40:49;6.70;99.90
17591;DHT22;8914;50.070;8.226;2023-12-20T04:43:21;6.70;99.90
17591;DHT22;8914;50.070;8.226;2023-12-20T04:45:51;6.80;99.90
17591;DHT22;8914;50.070;8.226;2023-12-20T04:48:21;6.80;99.90
17591;DHT22;8914;50.070;8.226;2023-12-20T04:50:50;6.80;99.90
17591;DHT22;8914;50.070;8.226;2023-12-20T04:53:20;6.70;99.90
17591;DHT22;8914;50.070;8.226;2023-12-20T04:55:50;6.70;99.90
17591;DHT22;8914;50.070;8.226;2023-12-20T04:58:22;6.80;99.90
17591;DHT22;8914;50.070;8.226;2023-12-20T05:00:52;6.70;99.90
17591;DHT22;8914;50.070;8.226;2023-12-20T05:03:21;6.80;99.90
17591;DHT22;8914;50.070;8.226;2023-12-20T05:05:51;6.70;99.90
17591;DHT22;8914;50.070;8.226;2023-12-20T05:08:21;6.70;99.90
17591;DHT22;8914;50.070;8.226;2023-12-20T05:10:52;6.70;99.90
17591;DHT22;8914;50.070;8.226;2023-12-20T05:13:25;6.80;99.90
17591;DHT22;8914;50.070;8.226;2023-12-20T05:16:07;6.70;99.90
17591;DHT22;8914;50.070;8.226;2023-12-20T05:18:40;6.60;99.90
17591;DHT22;8914;50.070;8.226;2023-12-20T05:21:10;6.60;99.90
17591;DHT22;8914;50.070;8.226;2023-12-20T05:23:40;6.60;99.90
17591;DHT22;8914;50.070;8.226;2023-12-20T05:26:09;6.60;99.90
17591;DHT22;8914;50.070;8.226;2023-12-20T05:28:41;6.60;99.90
17591;DHT22;8914;50.070;8.226;2023-12-20T05:31:11;6.50;99.90
17591;DHT22;8914;50.070;8.226;2023-12-20T05:33:41;6.50;99.90
17591;DHT22;8914;50.070;8.226;2023-12-20T05:36:11;6.50;99.90
17591;DHT22;8914;50.070;8.226;2023-12-20T05:38:41;6.60;99.90
17591;DHT22;8914;50.070;8.226;2023-12-20T05:41:11;6.60;99.90
17591;DHT22;8914;50.070;8.226;2023-12-20T05:43:43;6.60;99.90
17591;DHT22;8914;50.070;8.226;2023-12-20T05:46:13;6.60;99.90
17591;DHT22;8914;50.070;8.226;2023-12-20T05:48:43;6.60;99.90
17591;DHT22;8914;50.070;8.226;2023-12-20T05:51:14;6.50;99.90
17591;DHT22;8914;50.070;8.226;2023-12-20T05:53:44;6.70;99.90
17591;DHT22;8914;50.070;8.226;2023-12-20T05:56:13;6.60;99.90
17591;DHT22;8914;50.070;8.226;2023-12-20T05:58:45;6.60;99.90
17591;DHT22;8914;50.070;8.226;2023-12-20T06:01:15;6.50;99.90
17591;DHT22;8914;50.070;8.226;2023-12-20T06:03:46;6.60;99.90
17591;DHT22;8914;50.070;8.226;2023-12-20T06:06:15;6.60;99.90
17591;DHT22;8914;50.070;8.226;2023-12-20T06:08:45;6.50;99.90
17591;DHT22;8914;50.070;8.226;2023-12-20T06:11:15;6.50;99.90
17591;DHT22;8914;50.070;8.226;2023-12-20T06:13:47;6.50;99.90
17591;DHT22;8914;50.070;8.226;2023-12-20T06:16:18;6.50;99.90
17591;DHT22;8914;50.070;8.226;2023-12-20T06:18:48;6.50;99.90
17591;DHT22;8914;50.070;8.226;2023-12-20T06:21:18;6.40;99.90
17591;DHT22;8914;50.070;8.226;2023-12-20T06:23:48;6.40;99.90
17591;DHT22;8914;50.070;8.226;2023-12-20T06:26:17;6.50;99.90
17591;DHT22;8914;50.070;8.226;2023-12-20T06:28:49;6.30;99.90
17591;DHT22;8914;50.070;8.226;2023-12-20T06:31:19;6.30;99.90
17591;DHT22;8914;50.070;8.226;2023-12-20T06:33:49;6.30;99.90
17591;DHT22;8914;50.070;8.226;2023-12-20T06:36:24;6.30;99.90
17591;DHT22;8914;50.070;8.226;2023-12-20T06:38:54;6.30;99.90
17591;DHT22;8914;50.070;8.226;2023-12-20T06:41:24;6.20;99.90
17591;DHT22;8914;50.070;8.226;2023-12-20T06:43:56;6.10;99.90
17591;DHT22;8914;50.070;8.226;2023-12-20T06:46:26;6.10;99.90
17591;DHT22;8914;50.070;8.226;2023-12-20T06:48:56;6.10;99.90
17591;DHT22;8914;50.070;8.226;2023-12-20T06:51:25;6.10;99.90
17591;DHT22;8914;50.070;8.226;2023-12-20T06:53:55;6.10;99.90
17591;DHT22;8914;50.070;8.226;2023-12-20T06:56:24;6.10;99.90
17591;DHT22;8914;50.070;8.226;2023-12-20T06:58:57;6.10;99.90
17591;DHT22;8914;50.070;8.226;2023-12-20T07:01:26;6.10;99.90
17591;DHT22;8914;50.070;8.226;2023-12-20T07:03:56;6.00;99.90
17591;DHT22;8914;50.070;8.226;2023-12-20T07:06:26;6.00;99.90
17591;DHT22;8914;50.070;8.226;2023-12-20T07:08:55;5.90;99.90
17591;DHT22;8914;50.070;8.226;2023-12-20T07:11:25;5.90;99.90
17591;DHT22;8914;50.070;8.226;2023-12-20T07:13:57;5.90;99.90
17591;DHT22;8914;50.070;8.226;2023-12-20T07:16:28;5.90;99.90
17591;DHT22;8914;50.070;8.226;2023-12-20T07:18:57;6.00;99.90
17591;DHT22;8914;50.070;8.226;2023-12-20T07:21:27;6.00;99.90
17591;DHT22;8914;50.070;8.226;2023-12-20T07:23:57;6.00;99.90
17591;DHT22;8914;50.070;8.226;2023-12-20T07:26:26;6.00;99.90
17591;DHT22;8914;50.070;8.226;2023-12-20T07:28:58;5.90;99.90
17591;DHT22;8914;50.070;8.226;2023-12-20T07:31:28;5.90;99.90
17591;DHT22;8914;50.070;8.226;2023-12-20T07:33:58;5.90;99.90
17591;DHT22;8914;50.070;8.226;2023-12-20T07:36:28;5.90;99.90
17591;DHT22;8914;50.070;8.226;2023-12-20T07:38:57;5.90;99.90
17591;DHT22;8914;50.070;8.226;2023-12-20T07:41:27;6.00;99.90
17591;DHT22;8914;50.070;8.226;2023-12-20T07:43:59;6.00;99.90
17591;DHT22;8914;50.070;8.226;2023-12-20T07:46:29;6.10;99.90
17591;DHT22;8914;50.070;8.226;2023-12-20T07:48:59;6.10;99.90
17591;DHT22;8914;50.070;8.226;2023-12-20T07:51:28;6.10;99.90
17591;DHT22;8914;50.070;8.226;2023-12-20T07:53:58;6.10;99.90
17591;DHT22;8914;50.070;8.226;2023-12-20T07:56:28;5.80;99.90
17591;DHT22;8914;50.070;8.226;2023-12-20T07:59:00;6.20;99.90
17591;DHT22;8914;50.070;8.226;2023-12-20T08:01:32;6.20;99.90
17591;DHT22;8914;50.070;8.226;2023-12-20T08:04:03;6.20;99.90
17591;DHT22;8914;50.070;8.226;2023-12-20T08:06:33;6.20;99.90
17591;DHT22;8914;50.070;8.226;2023-12-20T08:09:04;6.30;99.90
17591;DHT22;8914;50.070;8.226;2023-12-20T08:11:34;6.30;99.90
17591;DHT22;8914;50.070;8.226;2023-12-20T08:14:07;6.30;99.90
17591;DHT22;8914;50.070;8.226;2023-12-20T08:16:37;6.30;99.90
17591;DHT22;8914;50.070;8.226;2023-12-20T08:19:07;6.30;99.90
17591;DHT22;8914;50.070;8.226;2023-12-20T08:21:37;6.50;99.90
17591;DHT22;8914;50.070;8.226;2023-12-20T08:24:07;6.80;99.90
17591;DHT22;8914;50.070;8.226;2023-12-20T08:26:37;6.10;99.90
17591;DHT22;8914;50.070;8.226;2023-12-20T08:29:10;6.80;99.90
17591;DHT22;8914;50.070;8.226;2023-12-20T08:31:42;6.20;99.90
17591;DHT22;8914;50.070;8.226;2023-12-20T08:34:13;6.20;99.90
17591;DHT22;8914;50.070;8.226;2023-12-20T08:36:43;6.20;99.90
17591;DHT22;8914;50.070;8.226;2023-12-20T08:39:13;6.10;99.90
17591;DHT22;8914;50.070;8.226;2023-12-20T08:41:43;7.30;99.90
17591;DHT22;8914;50.070;8.226;2023-12-20T08:44:15;6.20;99.90
17591;DHT22;8914;50.070;8.226;2023-12-20T08:46:45;6.20;99.90
17591;DHT22;8914;50.070;8.226;2023-12-20T08:49:15;6.20;99.90
17591;DHT22;8914;50.070;8.226;2023-12-20T08:51:45;6.50;99.90
17591;DHT22;8914;50.070;8.226;2023-12-20T08:54:15;6.40;99.90
17591;DHT22;8914;50.070;8.226;2023-12-20T08:56:46;6.30;99.90
17591;DHT22;8914;50.070;8.226;2023-12-20T08:59:18;6.40;99.90
17591;DHT22;8914;50.070;8.226;2023-12-20T09:01:48;6.40;99.90
17591;DHT22;8914;50.070;8.226;2023-12-20T09:04:21;6.40;99.90
17591;DHT22;8914;50.070;8.226;2023-12-20T09:06:51;6.40;99.90
17591;DHT22;8914;50.070;8.226;2023-12-20T09:09:21;6.50;99.90
17591;DHT22;8914;50.070;8.226;2023-12-20T09:11:51;6.40;99.90
17591;DHT22;8914;50.070;8.226;2023-12-20T09:14:23;6.50;99.90
17591;DHT22;8914;50.070;8.226;2023-12-20T09:16:53;7.50;99.90
17591;DHT22;8914;50.070;8.226;2023-12-20T09:19:24;6.50;99.90
17591;DHT22;8914;50.070;8.226;2023-12-20T09:21:54;7.60;99.90
17591;DHT22;8914;50.070;8.226;2023-12-20T09:24:24;6.50;99.90
17591;DHT22;8914;50.070;8.226;2023-12-20T09:26:53;6.50;99.90
17591;DHT22;8914;50.070;8.226;2023-12-20T09:29:26;6.80;99.90
17591;DHT22;8914;50.070;8.226;2023-12-20T09:31:55;6.50;99.90
17591;DHT22;8914;50.070;8.226;2023-12-20T09:34:26;6.50;99.90
17591;DHT22;8914;50.070;8.226;2023-12-20T09:36:59;6.60;99.90
17591;DHT22;8914;50.070;8.226;2023-12-20T09:39:30;6.50;99.90
17591;DHT22;8914;50.070;8.226;2023-12-20T09:42:00;6.60;99.90
17591;DHT22;8914;50.070;8.226;2023-12-20T09:44:33;6.60;99.90
17591;DHT22;8914;50.070;8.226;2023-12-20T09:47:04;6.70;99.90
17591;DHT22;8914;50.070;8.226;2023-12-20T09:49:37;6.70;99.90
17591;DHT22;8914;50.070;8.226;2023-12-20T09:52:08;6.80;99.90
17591;DHT22;8914;50.070;8.226;2023-12-20T09:54:39;6.80;99.90
17591;DHT22;8914;50.070;8.226;2023-12-20T09:57:09;6.90;99.90
17591;DHT22;8914;50.070;8.226;2023-12-20T09:59:41;6.80;99.90
17591;DHT22;8914;50.070;8.226;2023-12-20T10:02:12;7.00;99.90
17591;DHT22;8914;50.070;8.226;2023-12-20T10:04:45;6.80;99.90
17591;DHT22;8914;50.070;8.226;2023-12-20T10:07:16;6.90;99.90
17591;DHT22;8914;50.070;8.226;2023-12-20T10:09:47;6.90;99.90
17591;DHT22;8914;50.070;8.226;2023-12-20T10:12:17;7.30;99.90
17591;DHT22;8914;50.070;8.226;2023-12-20T10:14:50;6.80;99.90
17591;DHT22;8914;50.070;8.226;2023-12-20T10:17:20;6.90;99.90
17591;DHT22;8914;50.070;8.226;2023-12-20T10:19:51;6.90;99.90
17591;DHT22;8914;50.070;8.226;2023-12-20T10:22:21;7.00;99.90
17591;DHT22;8914;50.070;8.226;2023-12-20T10:24:51;7.00;99.90
17591;DHT22;8914;50.070;8.226;2023-12-20T10:27:21;7.80;99.90
17591;DHT22;8914;50.070;8.226;2023-12-20T10:29:54;7.10;99.90
17591;DHT22;8914;50.070;8.226;2023-12-20T10:32:25;7.10;99.90
17591;DHT22;8914;50.070;8.226;2023-12-20T10:34:55;7.10;99.90
17591;DHT22;8914;50.070;8.226;2023-12-20T10:37:26;7.10;99.90
17591;DHT22;8914;50.070;8.226;2023-12-20T10:39:56;7.10;99.90
17591;DHT22;8914;50.070;8.226;2023-12-20T10:42:28;7.20;99.90
17591;DHT22;8914;50.070;8.226;2023-12-20T10:45:03;7.20;99.90
17591;DHT22;8914;50.070;8.226;2023-12-20T10:47:32;7.40;99.90
17591;DHT22;8914;50.070;8.226;2023-12-20T10:50:06;7.40;99.90
17591;DHT22;8914;50.070;8.226;2023-12-20T10:52:37;7.50;99.90
17591;DHT22;8914;50.070;8.226;2023-12-20T10:55:08;7.60;99.90
17591;DHT22;8914;50.070;8.226;2023-12-20T10:57:38;7.60;99.90
17591;DHT22;8914;50.070;8.226;2023-12-20T11:00:11;7.70;99.90
17591;DHT22;8914;50.070;8.226;2023-12-20T11:02:42;7.90;99.90
17591;DHT22;8914;50.070;8.226;2023-12-20T11:05:14;8.00;99.90
17591;DHT22;8914;50.070;8.226;2023-12-20T11:07:47;8.40;99.90
17591;DHT22;8914;50.070;8.226;2023-12-20T11:10:18;8.10;99.90
17591;DHT22;8914;50.070;8.226;2023-12-20T14:02:10;8.10;99.90
17591;DHT22;8914;50.070;8.226;2023-12-20T14:04:39;8.40;99.90
17591;DHT22;8914;50.070;8.226;2023-12-20T14:07:09;8.40;99.90
17591;DHT22;8914;50.070;8.226;2023-12-20T14:09:39;9.00;99.90
17591;DHT22;8914;50.070;8.226;2023-12-20T14:12:13;8.40;99.90
17591;DHT22;8914;50.070;8.226;2023-12-20T14:14:43;8.30;99.90
17591;DHT22;8914;50.070;8.226;2023-12-20T14:17:16;8.40;99.90
17591;DHT22;8914;50.070;8.226;2023-12-20T14:19:46;8.30;99.90
17591;DHT22;8914;50.070;8.226;2023-12-20T14:22:16;8.20;99.90
17591;DHT22;8914;50.070;8.226;2023-12-20T14:24:46;8.20;99.90
17591;DHT22;8914;50.070;8.226;2023-12-20T14:27:16;8.30;99.90
17591;DHT22;8914;50.070;8.226;2023-12-20T14:29:49;8.20;99.90
17591;DHT22;8914;50.070;8.226;2023-12-20T14:32:21;8.20;99.90
17591;DHT22;8914;50.070;8.226;2023-12-20T14:34:52;8.20;99.90
17591;DHT22;8914;50.070;8.226;2023-12-20T14:37:22;8.20;99.90
17591;DHT22;8914;50.070;8.226;2023-12-20T14:39:52;8.10;99.90
17591;DHT22;8914;50.070;8.226;2023-12-20T14:42:22;8.10;99.90
17591;DHT22;8914;50.070;8.226;2023-12-20T14:44:52;8.10;99.90
17591;DHT22;8914;50.070;8.226;2023-12-20T14:47:24;8.00;99.90
17591;DHT22;8914;50.070;8.226;2023-12-20T14:49:54;8.00;99.90
17591;DHT22;8914;50.070;8.226;2023-12-20T14:52:23;8.00;99.90
17591;DHT22;8914;50.070;8.226;2023-12-20T14:54:53;8.00;99.90
17591;DHT22;8914;50.070;8.226;2023-12-20T14:57:23;7.90;99.90
17591;DHT22;8914;50.070;8.226;2023-12-20T14:59:53;7.90;99.90
17591;DHT22;8914;50.070;8.226;2023-12-20T15:02:25;7.90;99.90
17591;DHT22;8914;50.070;8.226;2023-12-20T15:04:55;7.90;99.90
17591;DHT22;8914;50.070;8.226;2023-12-20T15:07:25;7.90;99.90
17591;DHT22;8914;50.070;8.226;2023-12-20T15:09:54;7.90;99.90
17591;DHT22;8914;50.070;8.226;2023-12-20T15:12:24;7.90;99.90
17591;DHT22;8914;50.070;8.226;2023-12-20T15:14:54;7.90;99.90
17591;DHT22;8914;50.070;8.226;2023-12-20T15:17:26;7.80;99.90
17591;DHT22;8914;50.070;8.226;2023-12-20T15:19:56;7.80;99.90
17591;DHT22;8914;50.070;8.226;2023-12-20T15:22:26;7.80;99.90
17591;DHT22;8914;50.070;8.226;2023-12-20T15:24:56;8.30;99.90
17591;DHT22;8914;50.070;8.226;2023-12-20T15:27:28;8.60;99.90
17591;DHT22;8914;50.070;8.226;2023-12-20T15:29:58;7.90;99.90
17591;DHT22;8914;50.070;8.226;2023-12-20T15:32:31;7.80;99.90
17591;DHT22;8914;50.070;8.226;2023-12-20T15:35:04;7.90;99.90
17591;DHT22;8914;50.070;8.226;2023-12-20T15:37:34;7.90;99.90
17591;DHT22;8914;50.070;8.226;2023-12-20T15:40:05;8.80;99.90
17591;DHT22;8914;50.070;8.226;2023-12-20T15:42:35;7.80;99.90
17591;DHT22;8914;50.070;8.226;2023-12-20T15:45:06;8.60;99.90
17591;DHT22;8914;50.070;8.226;2023-12-20T15:47:38;7.80;99.90
17591;DHT22;8914;50.070;8.226;2023-12-20T15:50:08;7.80;99.90
17591;DHT22;8914;50.070;8.226;2023-12-20T15:52:38;7.80;99.90
17591;DHT22;8914;50.070;8.226;2023-12-20T15:55:10;6.80;99.90
17591;DHT22;8914;50.070;8.226;2023-12-20T15:57:40;7.80;99.90
17591;DHT22;8914;50.070;8.226;2023-12-20T16:00:20;7.80;99.90
17591;DHT22;8914;50.070;8.226;2023-12-20T16:02:53;7.80;99.90
17591;DHT22;8914;50.070;8.226;2023-12-20T16:05:22;7.90;99.90
17591;DHT22;8914;50.070;8.226;2023-12-20T16:07:52;7.80;99.90
17591;DHT22;8914;50.070;8.226;2023-12-20T16:10:22;7.80;99.90
17591;DHT22;8914;50.070;8.226;2023-12-20T16:12:51;7.90;99.90
17591;DHT22;8914;50.070;8.226;2023-12-20T16:15:22;8.00;99.90
17591;DHT22;8914;50.070;8.226;2023-12-20T16:17:54;7.80;99.90
17591;DHT22;8914;50.070;8.226;2023-12-20T16:20:25;7.80;99.90
17591;DHT22;8914;50.070;8.226;2023-12-20T16:22:54;7.80;99.90
17591;DHT22;8914;50.070;8.226;2023-12-20T16:25:24;7.90;99.90
17591;DHT22;8914;50.070;8.226;2023-12-20T16:27:54;7.90;99.90
17591;DHT22;8914;50.070;8.226;2023-12-20T16:30:24;7.80;99.90
17591;DHT22;8914;50.070;8.226;2023-12-20T16:32:56;7.80;99.90
17591;DHT22;8914;50.070;8.226;2023-12-20T16:35:26;7.80;99.90
17591;DHT22;8914;50.070;8.226;2023-12-20T16:37:56;7.80;99.90
17591;DHT22;8914;50.070;8.226;2023-12-20T16:40:26;7.80;99.90
17591;DHT22;8914;50.070;8.226;2023-12-20T16:42:56;7.90;99.90
17591;DHT22;8914;50.070;8.226;2023-12-20T16:45:25;7.70;99.90
17591;DHT22;8914;50.070;8.226;2023-12-20T16:47:58;7.80;99.90
17591;DHT22;8914;50.070;8.226;2023-12-20T16:50:27;7.80;99.90
17591;DHT22;8914;50.070;8.226;2023-12-20T16:52:57;7.80;99.90
17591;DHT22;8914;50.070;8.226;2023-12-20T16:55:26;7.80;99.90
17591;DHT22;8914;50.070;8.226;2023-12-20T16:57:57;7.80;99.90
17591;DHT22;8914;50.070;8.226;2023-12-20T17:00:31;7.80;99.90
17591;DHT22;8914;50.070;8.226;2023-12-20T17:03:03;7.80;99.90
17591;DHT22;8914;50.070;8.226;2023-12-20T17:10:57;7.80;99.90
17591;DHT22;8914;50.070;8.226;2023-12-20T17:13:27;8.70;99.90
17591;DHT22;8914;50.070;8.226;2023-12-20T17:15:57;7.80;99.90
17591;DHT22;8914;50.070;8.226;2023-12-20T17:18:29;7.80;99.90
17591;DHT22;8914;50.070;8.226;2023-12-20T17:20:59;7.80;99.90
17591;DHT22;8914;50.070;8.226;2023-12-20T17:23:29;7.80;99.90
17591;DHT22;8914;50.070;8.226;2023-12-20T17:25:59;7.90;99.90
17591;DHT22;8914;50.070;8.226;2023-12-20T17:28:28;7.90;99.90
17591;DHT22;8914;50.070;8.226;2023-12-20T17:30:58;7.90;99.90
17591;DHT22;8914;50.070;8.226;2023-12-20T17:33:31;8.20;99.90
17591;DHT22;8914;50.070;8.226;2023-12-20T17:36:01;8.00;99.90
17591;DHT22;8914;50.070;8.226;2023-12-20T17:38:31;8.00;99.90
17591;DHT22;8914;50.070;8.226;2023-12-20T17:41:03;8.00;99.90
17591;DHT22;8914;50.070;8.226;2023-12-20T17:43:33;8.00;99.90
17591;DHT22;8914;50.070;8.226;2023-12-20T17:46:03;8.00;99.90
17591;DHT22;8914;50.070;8.226;2023-12-20T17:48:35;8.00;99.90
17591;DHT22;8914;50.070;8.226;2023-12-20T17:51:05;8.00;99.90
17591;DHT22;8914;50.070;8.226;2023-12-20T17:53:34;8.00;99.90
17591;DHT22;8914;50.070;8.226;2023-12-20T17:56:04;8.10;99.90
17591;DHT22;8914;50.070;8.226;2023-12-20T17:58:34;8.00;99.90
17591;DHT22;8914;50.070;8.226;2023-12-20T18:01:04;8.00;99.90
17591;DHT22;8914;50.070;8.226;2023-12-20T18:03:36;8.10;99.90
17591;DHT22;8914;50.070;8.226;2023-12-20T18:06:06;8.10;99.90
17591;DHT22;8914;50.070;8.226;2023-12-20T18:08:35;8.10;99.90
17591;DHT22;8914;50.070;8.226;2023-12-20T18:11:05;8.10;99.90
17591;DHT22;8914;50.070;8.226;2023-12-20T18:13:35;8.10;99.90
17591;DHT22;8914;50.070;8.226;2023-12-20T18:16:04;8.10;99.90
17591;DHT22;8914;50.070;8.226;2023-12-20T18:18:39;8.10;99.90
17591;DHT22;8914;50.070;8.226;2023-12-20T18:21:09;8.10;99.90
17591;DHT22;8914;50.070;8.226;2023-12-20T18:23:39;8.10;99.90
17591;DHT22;8914;50.070;8.226;2023-12-20T18:26:08;8.10;99.90
17591;DHT22;8914;50.070;8.226;2023-12-20T18:28:38;8.10;99.90
17591;DHT22;8914;50.070;8.226;2023-12-20T18:31:08;8.10;99.90
17591;DHT22;8914;50.070;8.226;2023-12-20T18:33:41;8.10;99.90
17591;DHT22;8914;50.070;8.226;2023-12-20T18:36:10;8.10;99.90
17591;DHT22;8914;50.070;8.226;2023-12-20T18:38:40;8.10;99.90
17591;DHT22;8914;50.070;8.226;2023-12-20T18:41:10;8.10;99.90
17591;DHT22;8914;50.070;8.226;2023-12-20T18:43:41;8.20;99.90
17591;DHT22;8914;50.070;8.226;2023-12-20T18:46:10;8.20;99.90
17591;DHT22;8914;50.070;8.226;2023-12-20T18:48:43;8.10;99.90
17591;DHT22;8914;50.070;8.226;2023-12-20T18:51:13;8.20;99.90
17591;DHT22;8914;50.070;8.226;2023-12-20T18:53:43;8.20;99.90
17591;DHT22;8914;50.070;8.226;2023-12-20T18:56:13;8.20;99.90
17591;DHT22;8914;50.070;8.226;2023-12-20T18:58:43;8.20;99.90
17591;DHT22;8914;50.070;8.226;2023-12-20T19:01:13;8.20;99.90
17591;DHT22;8914;50.070;8.226;2023-12-20T19:03:45;8.20;99.90
17591;DHT22;8914;50.070;8.226;2023-12-20T19:06:15;8.20;99.90
17591;DHT22;8914;50.070;8.226;2023-12-20T19:08:45;8.10;99.90
17591;DHT22;8914;50.070;8.226;2023-12-20T19:11:17;8.10;99.90
17591;DHT22;8914;50.070;8.226;2023-12-20T19:13:47;8.10;99.90
17591;DHT22;8914;50.070;8.226;2023-12-20T19:16:16;8.00;99.90
17591;DHT22;8914;50.070;8.226;2023-12-20T19:18:49;8.00;99.90
17591;DHT22;8914;50.070;8.226;2023-12-20T19:21:19;8.00;99.90
17591;DHT22;8914;50.070;8.226;2023-12-20T19:23:48;8.10;99.90
17591;DHT22;8914;50.070;8.226;2023-12-20T19:26:18;8.10;99.90